Time;durP1;ratioP1;P1;durP2;ratioP2;P2;SDS_P1;SDS_P2;PMS_P1;PMS_P2;Temp;Humidity;BMP_temperature;BMP_pressure;BME280_temperature;BME280_humidity;BME280_pressure;Samples;Min_cycle;Max_cycle;Signal;HPM_P1;HPM_P2
2024/03/17 00:02:18;;;;;;;23.20;10.00;;;6.60;99.90;;;;;;5045690;28;20186;-60
2024/03/17 00:04:44;;;;;;;51.73;10.80;;;6.60;99.90;;;;;;5046446;28;21072;-60
2024/03/17 00:07:10;;;;;;;42.00;11.33;;;6.60;99.90;;;;;;5041809;28;20422;-60
2024/03/17 00:09:35;;;;;;;31.33;10.90;;;6.70;99.90;;;;;;5046974;28;20451;-61
2024/03/17 00:12:01;;;;;;;21.30;10.00;;;6.60;99.90;;;;;;5046341;28;20172;-60
2024/03/17 00:14:28;;;;;;;30.70;10.53;;;6.60;99.90;;;;;;5046675;28;20171;-60
2024/03/17 00:16:53;;;;;;;20.60;10.00;;;6.70;99.90;;;;;;5044515;28;20195;-61
2024/03/17 00:19:22;;;;;;;26.67;10.87;;;6.70;99.90;;;;;;5046581;28;20831;-62
2024/03/17 00:21:48;;;;;;;21.90;10.63;;;6.70;99.90;;;;;;5047622;28;20669;-61
2024/03/17 00:24:13;;;;;;;47.73;11.70;;;6.70;99.90;;;;;;5048058;28;20437;-61
2024/03/17 00:26:39;;;;;;;26.17;9.57;;;6.70;99.90;;;;;;5046945;28;20433;-62
2024/03/17 00:29:06;;;;;;;18.57;9.07;;;6.70;99.90;;;;;;5049142;28;20780;-61
2024/03/17 00:31:31;;;;;;;99.37;11.27;;;6.70;99.90;;;;;;5051075;28;20210;-61
2024/03/17 00:33:57;;;;;;;45.03;10.53;;;6.70;99.90;;;;;;5046999;28;20414;-62
2024/03/17 00:36:23;;;;;;;102.73;10.70;;;6.70;99.90;;;;;;5044733;28;20527;-61
2024/03/17 00:38:49;;;;;;;41.33;10.83;;;6.70;99.90;;;;;;5049571;28;20457;-60
2024/03/17 00:41:15;;;;;;;126.00;12.00;;;6.70;99.90;;;;;;5047480;28;20648;-61
2024/03/17 00:43:41;;;;;;;35.27;8.80;;;6.70;99.90;;;;;;5049379;28;20684;-61
2024/03/17 00:46:06;;;;;;;56.37;9.40;;;6.70;99.90;;;;;;5049067;28;20437;-61
2024/03/17 00:48:32;;;;;;;30.23;8.37;;;6.60;99.90;;;;;;5048373;28;20202;-62
2024/03/17 00:50:58;;;;;;;51.13;9.40;;;6.60;99.90;;;;;;5047335;28;20206;-61
2024/03/17 00:53:25;;;;;;;30.00;7.97;;;6.60;99.90;;;;;;5049247;28;20221;-61
2024/03/17 00:55:55;;;;;;;27.23;8.47;;;6.60;99.90;;;;;;5049992;28;20928;-61
2024/03/17 00:58:21;;;;;;;20.80;8.90;;;6.60;99.90;;;;;;5043293;28;21074;-61
2024/03/17 01:00:47;;;;;;;16.17;7.17;;;6.60;99.90;;;;;;5050061;28;20440;-61
2024/03/17 01:03:14;;;;;;;41.33;10.00;;;6.60;99.90;;;;;;5050057;28;20179;-61
2024/03/17 01:05:42;;;;;;;49.37;9.03;;;6.60;99.90;;;;;;5048832;28;21036;-61
2024/03/17 01:08:09;;;;;;;24.63;8.83;;;6.60;99.90;;;;;;5046112;28;20963;-61
2024/03/17 01:10:38;;;;;;;56.87;9.90;;;6.60;99.90;;;;;;5043660;28;20551;-61
2024/03/17 01:13:05;;;;;;;26.73;9.23;;;6.50;99.90;;;;;;5047582;28;20453;-61
2024/03/17 01:15:31;;;;;;;17.00;8.53;;;6.50;99.90;;;;;;5048399;28;20418;-63
2024/03/17 01:17:56;;;;;;;13.30;8.10;;;6.50;99.90;;;;;;5048305;28;20460;-61
2024/03/17 01:20:22;;;;;;;22.00;9.00;;;6.50;99.90;;;;;;5048305;28;20206;-61
2024/03/17 01:22:47;;;;;;;29.13;11.17;;;6.50;99.90;;;;;;5047668;28;20530;-61
2024/03/17 01:25:14;;;;;;;41.77;9.57;;;6.50;99.90;;;;;;5048605;28;20199;-61
2024/03/17 01:27:39;;;;;;;37.23;9.00;;;6.50;99.90;;;;;;5047935;28;20207;-61
2024/03/17 01:30:06;;;;;;;35.03;8.40;;;6.50;99.90;;;;;;5048661;28;20464;-60
2024/03/17 01:32:31;;;;;;;29.83;9.47;;;6.40;99.90;;;;;;5028774;28;20202;-60
2024/03/17 01:34:57;;;;;;;22.23;8.97;;;6.40;99.90;;;;;;5046070;28;20829;-60
2024/03/17 01:37:24;;;;;;;50.20;9.43;;;6.40;99.90;;;;;;5045080;28;20180;-60
2024/03/17 01:39:50;;;;;;;22.87;9.87;;;6.40;99.90;;;;;;5046321;28;20187;-61
2024/03/17 01:42:15;;;;;;;23.43;9.00;;;6.40;99.90;;;;;;5040591;28;20931;-60
2024/03/17 01:44:41;;;;;;;23.10;7.53;;;6.40;99.90;;;;;;5048955;28;20186;-60
2024/03/17 01:47:08;;;;;;;37.80;8.13;;;6.40;99.90;;;;;;5044482;28;20187;-60
2024/03/17 01:49:35;;;;;;;45.53;8.70;;;6.40;99.90;;;;;;5047170;28;20237;-62
2024/03/17 01:52:00;;;;;;;41.27;8.63;;;6.30;99.90;;;;;;5046649;28;20422;-60
2024/03/17 01:54:26;;;;;;;32.80;7.67;;;6.30;99.90;;;;;;5043582;28;20479;-60
2024/03/17 01:56:52;;;;;;;19.40;8.00;;;6.30;99.90;;;;;;5046615;28;20229;-59
2024/03/17 01:59:18;;;;;;;58.87;8.53;;;6.20;99.90;;;;;;5048929;28;20892;-60
2024/03/17 02:01:44;;;;;;;62.27;9.03;;;6.30;99.90;;;;;;5046854;28;20467;-60
2024/03/17 02:04:10;;;;;;;89.47;11.13;;;6.30;99.90;;;;;;5047250;28;20866;-60
2024/03/17 02:06:35;;;;;;;14.50;7.37;;;6.20;99.90;;;;;;5046569;28;20241;-60
2024/03/17 02:09:01;;;;;;;27.10;8.20;;;6.20;99.90;;;;;;5044439;28;20203;-60
2024/03/17 02:11:30;;;;;;;13.90;6.30;;;6.20;99.90;;;;;;5046110;28;20203;-60
2024/03/17 02:13:56;;;;;;;18.37;7.07;;;6.10;99.90;;;;;;5043618;28;20468;-61
2024/03/17 02:16:23;;;;;;;14.50;7.23;;;6.20;99.90;;;;;;5046970;28;20917;-61
2024/03/17 02:18:49;;;;;;;53.77;8.63;;;6.20;99.90;;;;;;5048791;28;20437;-61
2024/03/17 02:21:15;;;;;;;24.77;7.57;;;6.20;99.90;;;;;;5043721;28;20409;-61
2024/03/17 02:23:44;;;;;;;27.47;6.80;;;6.20;99.90;;;;;;5045442;28;20433;-60
2024/03/17 02:26:10;;;;;;;15.70;6.50;;;6.20;99.90;;;;;;5046982;28;20448;-60
2024/03/17 02:28:44;;;;;;;47.77;7.03;;;6.10;99.90;;;;;;5046995;28;20461;-60
2024/03/17 02:31:11;;;;;;;15.60;5.70;;;6.10;99.90;;;;;;5046943;28;20467;-60
2024/03/17 02:33:38;;;;;;;42.60;8.50;;;6.10;99.90;;;;;;5047816;28;20422;-60
2024/03/17 02:36:06;;;;;;;26.53;7.47;;;6.20;99.90;;;;;;5046750;28;20445;-60
2024/03/17 02:41:17;;;;;;;20.80;6.50;;;6.10;99.90;;;;;;5045990;28;20420;-61
2024/03/17 02:43:43;;;;;;;12.77;6.20;;;6.10;99.90;;;;;;5046413;28;20429;-60
2024/03/17 02:46:12;;;;;;;20.50;6.37;;;6.10;99.90;;;;;;5046664;28;20253;-60
2024/03/17 02:48:46;;;;;;;21.00;6.50;;;6.10;99.90;;;;;;5046750;28;20741;-60
2024/03/17 02:51:14;;;;;;;32.37;7.67;;;6.10;99.90;;;;;;5046620;28;20548;-60
2024/03/17 02:53:47;;;;;;;16.83;7.40;;;6.10;99.90;;;;;;5046233;28;20526;-61
2024/03/17 02:56:16;;;;;;;9.90;6.33;;;6.10;99.90;;;;;;5044084;28;20512;-60
2024/03/17 02:58:43;;;;;;;9.10;5.80;;;6.10;99.90;;;;;;5042484;28;20484;-60
2024/03/17 03:01:09;;;;;;;11.07;6.00;;;6.00;99.90;;;;;;5045332;28;20413;-61
2024/03/17 03:03:36;;;;;;;10.90;5.70;;;6.00;99.90;;;;;;5043203;28;20421;-60
2024/03/17 03:06:08;;;;;;;11.37;6.37;;;6.00;99.90;;;;;;5046410;28;20206;-62
2024/03/17 03:08:40;;;;;;;11.73;6.33;;;6.00;99.90;;;;;;5045789;28;20429;-60
2024/03/17 03:11:10;;;;;;;25.00;6.50;;;6.00;99.90;;;;;;5043416;28;21049;-60
2024/03/17 03:13:38;;;;;;;13.53;6.20;;;6.00;99.90;;;;;;5046562;28;20422;-60
2024/03/17 03:16:09;;;;;;;8.90;5.80;;;6.00;99.90;;;;;;5045176;28;20437;-62
2024/03/17 03:18:35;;;;;;;19.97;6.60;;;6.00;99.90;;;;;;5043515;28;20445;-61
2024/03/17 03:21:01;;;;;;;10.50;6.10;;;6.00;99.90;;;;;;5046170;28;20461;-60
2024/03/17 03:23:27;;;;;;;9.40;5.40;;;6.00;99.90;;;;;;5046994;28;20464;-61
2024/03/17 03:26:00;;;;;;;9.13;5.60;;;6.00;99.90;;;;;;5047946;28;20179;-60
2024/03/17 03:28:26;;;;;;;9.10;6.20;;;6.00;99.90;;;;;;5046622;28;20522;-60
2024/03/17 03:30:52;;;;;;;20.93;6.67;;;6.00;99.90;;;;;;5043261;28;20469;-60
2024/03/17 03:33:22;;;;;;;12.70;6.20;;;6.10;99.90;;;;;;5043571;28;20426;-61
2024/03/17 03:35:48;;;;;;;12.93;6.43;;;6.10;99.90;;;;;;5045076;28;21083;-61
2024/03/17 03:38:14;;;;;;;10.00;6.00;;;6.10;99.90;;;;;;5047091;28;20441;-61
2024/03/17 03:40:41;;;;;;;8.63;5.87;;;6.10;99.90;;;;;;5045881;28;20955;-60
2024/03/17 03:43:07;;;;;;;8.63;5.47;;;6.00;99.90;;;;;;5047103;28;20430;-61
2024/03/17 03:45:35;;;;;;;11.00;6.30;;;6.00;99.90;;;;;;5043480;28;20441;-60
2024/03/17 03:48:00;;;;;;;11.90;6.50;;;6.00;99.90;;;;;;5045983;28;21100;-60
2024/03/17 03:50:26;;;;;;;16.00;5.87;;;6.00;99.90;;;;;;5047032;28;20481;-60
2024/03/17 03:52:52;;;;;;;10.10;6.07;;;6.00;99.90;;;;;;5046633;28;20171;-61
2024/03/17 03:55:19;;;;;;;9.03;6.03;;;6.00;99.90;;;;;;5052034;28;20179;-60
2024/03/17 03:57:48;;;;;;;6.30;4.73;;;6.00;99.90;;;;;;5053168;28;20222;-60
2024/03/17 04:00:21;;;;;;;9.00;5.73;;;6.00;99.90;;;;;;5048088;28;20525;-61
2024/03/17 04:02:51;;;;;;;9.10;5.93;;;6.00;99.90;;;;;;5051923;28;20417;-62
2024/03/17 04:05:17;;;;;;;16.93;6.17;;;5.90;99.90;;;;;;5051787;28;20461;-60
2024/03/17 04:07:45;;;;;;;9.10;6.10;;;6.00;99.90;;;;;;5052003;28;20531;-61
2024/03/17 04:10:12;;;;;;;10.50;6.93;;;5.90;99.90;;;;;;5050369;28;20472;-61
2024/03/17 04:12:37;;;;;;;12.57;6.10;;;5.90;99.90;;;;;;5054516;28;20425;-61
2024/03/17 04:15:06;;;;;;;12.03;5.40;;;6.00;99.90;;;;;;5050511;28;20417;-61
2024/03/17 04:17:32;;;;;;;43.47;6.60;;;5.90;99.90;;;;;;5046666;28;20198;-61
2024/03/17 04:19:58;;;;;;;37.57;8.03;;;6.00;99.90;;;;;;5050861;28;20435;-61
2024/03/17 04:22:24;;;;;;;15.60;6.50;;;6.00;99.90;;;;;;5049375;28;20413;-61
2024/03/17 04:24:53;;;;;;;11.13;6.00;;;5.90;99.90;;;;;;5046904;28;20417;-61
2024/03/17 04:27:22;;;;;;;18.80;6.00;;;5.90;99.90;;;;;;5052862;28;20453;-60
2024/03/17 04:29:55;;;;;;;10.17;5.93;;;5.90;99.90;;;;;;5050941;28;20468;-61
2024/03/17 04:32:21;;;;;;;7.10;5.60;;;5.90;99.90;;;;;;5049936;28;20852;-60
2024/03/17 04:34:49;;;;;;;14.23;5.93;;;5.90;99.90;;;;;;5052595;28;20401;-60
2024/03/17 04:37:15;;;;;;;9.37;5.90;;;5.80;99.90;;;;;;5048152;28;20422;-61
2024/03/17 04:39:42;;;;;;;15.93;6.70;;;5.80;99.90;;;;;;5051727;28;20420;-61
2024/03/17 04:42:09;;;;;;;12.63;6.03;;;5.80;99.90;;;;;;5048798;28;20198;-61
2024/03/17 04:44:35;;;;;;;17.90;7.40;;;5.80;99.90;;;;;;5049671;28;20449;-61
2024/03/17 04:47:06;;;;;;;41.33;8.27;;;5.80;99.90;;;;;;5052623;28;20441;-62
2024/03/17 04:49:45;;;;;;;25.30;6.50;;;5.80;99.90;;;;;;5050256;28;20537;-60
2024/03/17 04:52:12;;;;;;;26.83;7.77;;;5.80;99.90;;;;;;5052647;28;20451;-61
2024/03/17 04:54:38;;;;;;;56.70;9.27;;;5.80;99.90;;;;;;5052400;28;20425;-60
2024/03/17 04:57:04;;;;;;;21.17;8.13;;;5.80;99.90;;;;;;5052180;28;20453;-60
2024/03/17 04:59:30;;;;;;;25.73;8.00;;;5.80;99.90;;;;;;5053779;28;20191;-60
2024/03/17 05:01:55;;;;;;;13.37;7.20;;;5.80;99.90;;;;;;5049785;28;20851;-61
2024/03/17 05:04:21;;;;;;;19.00;8.50;;;5.80;99.90;;;;;;5052789;28;20210;-60
2024/03/17 05:06:49;;;;;;;42.40;9.97;;;5.80;99.90;;;;;;5049056;28;20183;-61
2024/03/17 05:09:19;;;;;;;12.63;6.13;;;5.80;99.90;;;;;;5048480;28;20429;-61
2024/03/17 05:11:45;;;;;;;21.63;7.10;;;5.80;99.90;;;;;;5048456;28;20884;-61
2024/03/17 05:14:11;;;;;;;16.53;5.63;;;5.80;99.90;;;;;;5045286;28;20413;-60
2024/03/17 05:16:37;;;;;;;16.37;5.90;;;5.80;99.90;;;;;;5047010;28;20429;-61
2024/03/17 05:19:03;;;;;;;17.20;7.00;;;5.80;99.90;;;;;;5043892;28;20490;-60
2024/03/17 05:21:32;;;;;;;12.73;5.70;;;5.70;99.90;;;;;;5042378;28;20177;-60
2024/03/17 05:24:00;;;;;;;8.47;5.60;;;5.70;99.90;;;;;;5049277;28;20444;-61
2024/03/17 05:26:26;;;;;;;24.00;6.00;;;5.70;99.90;;;;;;5044433;28;20417;-59
2024/03/17 05:28:53;;;;;;;6.57;5.10;;;5.80;99.90;;;;;;5049115;28;20438;-61
2024/03/17 05:31:21;;;;;;;29.10;6.17;;;5.70;99.90;;;;;;5046906;28;20563;-60
2024/03/17 05:33:47;;;;;;;11.23;5.00;;;5.80;99.90;;;;;;5048389;28;20917;-60
2024/03/17 05:36:12;;;;;;;10.37;5.40;;;5.70;99.90;;;;;;5047807;28;20427;-60
2024/03/17 05:38:38;;;;;;;27.87;5.53;;;5.70;99.90;;;;;;5048390;28;20751;-61
2024/03/17 05:41:06;;;;;;;32.47;6.50;;;5.70;99.90;;;;;;5049303;28;20186;-61
2024/03/17 05:43:35;;;;;;;11.33;6.43;;;5.70;99.90;;;;;;5048522;28;20183;-60
2024/03/17 05:46:02;;;;;;;50.37;7.63;;;5.70;99.90;;;;;;5030816;28;20418;-60
2024/03/17 05:48:28;;;;;;;15.70;5.57;;;5.70;99.90;;;;;;5028856;28;20430;-61
2024/03/17 05:50:54;;;;;;;59.63;8.53;;;5.70;99.90;;;;;;5046192;28;20540;-61
2024/03/17 05:53:21;;;;;;;94.10;9.23;;;5.70;99.90;;;;;;5048757;28;20889;-60
2024/03/17 05:55:47;;;;;;;27.80;5.70;;;5.70;99.90;;;;;;5049348;28;20167;-60
2024/03/17 05:58:13;;;;;;;50.60;7.73;;;5.70;99.90;;;;;;5047150;28;21075;-60
2024/03/17 06:00:39;;;;;;;90.00;10.57;;;5.70;99.90;;;;;;5046787;28;20175;-60
2024/03/17 06:03:06;;;;;;;61.60;9.40;;;5.70;99.90;;;;;;5048016;28;20654;-60
2024/03/17 06:05:36;;;;;;;30.60;8.43;;;5.60;99.90;;;;;;5042884;28;20472;-61
2024/03/17 06:08:04;;;;;;;28.73;6.17;;;5.60;99.90;;;;;;5046092;28;20452;-60
2024/03/17 06:10:30;;;;;;;6.07;4.20;;;5.60;99.90;;;;;;5045193;28;20457;-60
2024/03/17 06:13:00;;;;;;;12.50;5.20;;;5.60;99.90;;;;;;5048665;28;20927;-61
2024/03/17 06:15:26;;;;;;;74.27;8.53;;;5.70;99.90;;;;;;5045326;28;20407;-60
2024/03/17 06:17:52;;;;;;;26.43;6.60;;;5.70;99.90;;;;;;5046577;28;20959;-60
2024/03/17 06:20:23;;;;;;;18.73;6.80;;;5.70;99.90;;;;;;5048518;28;20452;-62
2024/03/17 06:22:49;;;;;;;13.43;7.10;;;5.70;99.90;;;;;;5045041;28;21044;-60
2024/03/17 06:25:15;;;;;;;74.70;9.10;;;5.70;99.90;;;;;;5046495;28;20425;-60
2024/03/17 06:27:40;;;;;;;38.00;8.00;;;5.70;99.90;;;;;;5048770;28;20836;-61
2024/03/17 06:30:06;;;;;;;41.10;10.40;;;5.70;99.90;;;;;;5047533;28;20214;-61
2024/03/17 06:32:33;;;;;;;23.37;6.93;;;5.70;99.90;;;;;;5046433;28;20698;-61
2024/03/17 06:35:02;;;;;;;27.63;6.70;;;5.70;99.90;;;;;;5048206;28;20418;-61
2024/03/17 06:37:27;;;;;;;80.70;8.60;;;5.80;99.90;;;;;;5045392;28;20416;-60
2024/03/17 06:39:53;;;;;;;122.33;11.17;;;5.80;99.90;;;;;;5045542;28;20437;-61
2024/03/17 06:42:19;;;;;;;23.43;7.53;;;5.80;99.90;;;;;;5041958;28;20182;-60
2024/03/17 06:44:45;;;;;;;12.93;7.47;;;5.80;99.90;;;;;;5047776;28;20665;-60
2024/03/17 06:47:10;;;;;;;14.70;6.43;;;5.80;99.90;;;;;;5047418;28;20254;-61
2024/03/17 06:49:36;;;;;;;22.67;7.93;;;5.90;99.90;;;;;;5047160;28;20221;-61
2024/03/17 06:52:01;;;;;;;14.07;7.23;;;6.00;99.90;;;;;;5047645;28;20175;-61
2024/03/17 06:54:27;;;;;;;62.00;9.50;;;6.00;99.90;;;;;;5048150;28;20666;-60
2024/03/17 06:56:53;;;;;;;98.40;10.13;;;6.00;99.90;;;;;;5044835;28;20171;-61
2024/03/17 06:59:20;;;;;;;22.13;7.27;;;6.10;99.90;;;;;;5045230;28;20653;-61
2024/03/17 07:01:46;;;;;;;63.90;9.47;;;6.10;99.90;;;;;;5045404;28;20258;-61
2024/03/17 07:04:12;;;;;;;24.47;6.77;;;6.10;99.90;;;;;;5046297;28;20425;-61
2024/03/17 07:06:38;;;;;;;8.10;5.70;;;6.10;99.90;;;;;;5046210;28;20441;-61
2024/03/17 07:09:04;;;;;;;11.83;5.73;;;6.10;99.90;;;;;;5047461;28;20437;-60
2024/03/17 07:11:29;;;;;;;52.80;7.17;;;6.10;99.90;;;;;;5048453;28;20297;-60
2024/03/17 07:13:55;;;;;;;16.10;5.90;;;6.20;99.90;;;;;;5046113;28;20167;-61
2024/03/17 07:16:25;;;;;;;18.53;5.90;;;6.20;99.90;;;;;;5046019;28;20217;-61
2024/03/17 07:18:52;;;;;;;10.27;4.50;;;6.30;99.90;;;;;;5046284;28;20272;-61
2024/03/17 07:21:18;;;;;;;20.23;5.43;;;6.30;99.90;;;;;;5047212;28;20647;-61
2024/03/17 07:23:44;;;;;;;73.30;7.30;;;6.30;99.90;;;;;;5043506;28;21086;-61
2024/03/17 07:26:10;;;;;;;73.23;7.70;;;6.30;99.90;;;;;;5044512;28;20428;-60
2024/03/17 07:28:40;;;;;;;18.97;5.77;;;6.30;99.90;;;;;;5046379;28;20215;-60
2024/03/17 07:31:08;;;;;;;12.10;6.70;;;6.20;99.90;;;;;;5046432;28;20191;-60
2024/03/17 07:33:34;;;;;;;14.73;6.97;;;6.20;99.90;;;;;;5047930;28;20410;-62
2024/03/17 07:36:00;;;;;;;17.40;6.77;;;6.30;99.90;;;;;;5046309;28;20422;-61
2024/03/17 07:38:27;;;;;;;34.20;6.03;;;6.30;99.90;;;;;;5043741;28;20449;-61
2024/03/17 07:41:03;;;;;;;18.20;5.80;;;6.30;99.90;;;;;;5046631;28;20468;-60
2024/03/17 07:43:30;;;;;;;24.10;5.40;;;6.40;99.90;;;;;;5047422;28;20424;-60
2024/03/17 07:46:13;;;;;;;21.67;6.23;;;6.40;99.90;;;;;;5046569;28;20464;-61
2024/03/17 07:48:44;;;;;;;36.23;7.40;;;6.40;99.90;;;;;;5044086;28;20457;-60
2024/03/17 07:51:11;;;;;;;9.80;5.90;;;6.40;99.90;;;;;;5045986;28;20465;-61
2024/03/17 07:53:38;;;;;;;15.73;7.00;;;6.40;99.90;;;;;;5047509;28;20421;-61
2024/03/17 07:56:04;;;;;;;11.30;6.30;;;6.50;99.90;;;;;;5045624;28;20962;-61
2024/03/17 07:58:34;;;;;;;16.70;6.60;;;6.50;99.90;;;;;;5046527;28;20450;-61
2024/03/17 08:01:02;;;;;;;17.17;6.20;;;6.60;99.90;;;;;;5044398;28;20459;-60
2024/03/17 08:03:31;;;;;;;9.00;5.97;;;6.60;99.90;;;;;;5044254;28;20469;-61
2024/03/17 08:05:58;;;;;;;8.83;6.60;;;6.70;99.90;;;;;;5043695;28;20928;-61
2024/03/17 08:08:23;;;;;;;9.07;5.90;;;6.70;99.90;;;;;;5016551;28;20831;-60
2024/03/17 08:10:49;;;;;;;11.00;6.37;;;6.80;99.90;;;;;;5043804;28;20449;-61
2024/03/17 08:13:16;;;;;;;10.93;6.40;;;6.90;99.90;;;;;;5046688;28;20213;-61
2024/03/17 08:15:43;;;;;;;12.67;6.53;;;7.00;99.90;;;;;;5046639;28;20638;-61
2024/03/17 08:18:09;;;;;;;9.67;6.27;;;7.00;99.90;;;;;;5044795;28;20488;-61
2024/03/17 08:20:46;;;;;;;10.63;7.53;;;7.10;99.90;;;;;;5043728;28;20983;-62
2024/03/17 08:23:12;;;;;;;12.43;7.90;;;7.20;99.90;;;;;;5040277;28;20521;-61
2024/03/17 08:25:38;;;;;;;11.07;8.00;;;7.30;99.90;;;;;;5047160;28;20426;-61
2024/03/17 08:28:05;;;;;;;12.83;8.37;;;7.30;99.90;;;;;;5046695;28;20453;-61
2024/03/17 08:30:30;;;;;;;14.50;9.07;;;7.40;99.90;;;;;;5046645;28;20464;-61
2024/03/17 08:32:56;;;;;;;16.63;10.47;;;7.50;99.90;;;;;;5043038;28;20414;-61
2024/03/17 08:35:22;;;;;;;18.50;11.10;;;7.70;99.90;;;;;;5047237;28;20674;-61
2024/03/17 08:37:48;;;;;;;11.30;8.80;;;7.80;99.90;;;;;;5043859;28;20488;-61
2024/03/17 08:40:14;;;;;;;10.30;6.70;;;7.90;99.90;;;;;;5042219;28;20179;-61
2024/03/17 08:42:40;;;;;;;11.53;7.37;;;8.00;99.90;;;;;;5050182;28;20190;-61
2024/03/17 08:45:06;;;;;;;11.63;6.63;;;8.10;99.90;;;;;;5048848;28;20548;-61
2024/03/17 08:47:32;;;;;;;10.40;6.90;;;8.20;99.90;;;;;;5050406;28;20425;-61
2024/03/17 08:50:03;;;;;;;10.73;6.50;;;8.20;99.90;;;;;;5049878;28;20461;-62
2024/03/17 08:52:32;;;;;;;9.43;6.57;;;8.20;99.90;;;;;;5049188;28;20171;-62
2024/03/17 08:54:58;;;;;;;11.33;6.47;;;8.20;99.90;;;;;;5047378;28;20425;-61
2024/03/17 08:57:24;;;;;;;10.53;6.47;;;8.20;99.90;;;;;;5049917;28;20413;-61
2024/03/17 08:59:53;;;;;;;15.40;6.90;;;8.30;99.90;;;;;;5049887;28;20962;-60
2024/03/17 09:02:19;;;;;;;10.40;6.50;;;8.40;99.90;;;;;;5049116;28;22174;-61
2024/03/17 09:04:45;;;;;;;11.83;6.57;;;8.40;99.90;;;;;;5049427;28;20461;-61
2024/03/17 09:07:11;;;;;;;11.47;7.50;;;8.50;99.90;;;;;;5027681;28;20448;-61
2024/03/17 09:09:36;;;;;;;10.50;7.00;;;8.50;99.90;;;;;;5050262;28;20203;-61
2024/03/17 09:12:03;;;;;;;10.43;7.03;;;8.60;99.90;;;;;;5045747;28;20211;-61
2024/03/17 09:14:29;;;;;;;12.53;7.50;;;8.70;99.90;;;;;;5050561;28;20198;-60
2024/03/17 09:16:58;;;;;;;11.30;6.90;;;8.80;99.90;;;;;;5047258;28;20414;-60
2024/03/17 09:19:23;;;;;;;18.63;8.03;;;8.90;99.90;;;;;;5046848;28;20278;-60
2024/03/17 09:21:49;;;;;;;10.80;7.10;;;9.00;99.90;;;;;;5049821;28;20545;-61
2024/03/17 09:24:15;;;;;;;14.40;6.87;;;9.20;99.90;;;;;;5046866;28;20179;-61
2024/03/17 09:26:40;;;;;;;12.00;7.57;;;9.40;99.90;;;;;;5049950;28;20187;-61
2024/03/17 09:29:06;;;;;;;17.80;6.37;;;9.50;99.90;;;;;;5045970;28;20199;-62
2024/03/17 09:31:35;;;;;;;16.27;7.07;;;9.60;99.90;;;;;;5042430;28;20745;-61
2024/03/17 09:34:04;;;;;;;12.00;7.20;;;9.70;99.90;;;;;;5049558;28;20171;-60
2024/03/17 09:36:31;;;;;;;12.27;6.90;;;9.80;99.90;;;;;;5047327;28;20509;-61
2024/03/17 09:38:56;;;;;;;11.70;7.70;;;10.00;99.90;;;;;;5047842;28;20427;-62
2024/03/17 09:41:28;;;;;;;9.23;6.30;;;10.10;99.90;;;;;;5043623;28;20421;-61
2024/03/17 09:43:55;;;;;;;12.30;6.40;;;10.20;99.90;;;;;;5047294;28;20194;-62
2024/03/17 09:46:23;;;;;;;12.30;5.33;;;10.30;99.90;;;;;;5047867;28;20949;-62
2024/03/17 09:48:48;;;;;;;12.20;6.43;;;10.40;99.90;;;;;;5049530;28;20422;-62
2024/03/17 09:51:32;;;;;;;13.13;6.77;;;10.30;99.90;;;;;;5046997;28;20473;-61
2024/03/17 09:53:58;;;;;;;8.20;4.67;;;10.40;99.90;;;;;;5045793;28;20167;-61
2024/03/17 09:56:24;;;;;;;9.57;4.57;;;10.40;99.90;;;;;;5048359;28;20447;-62
2024/03/17 09:58:51;;;;;;;11.10;5.30;;;10.40;99.90;;;;;;5046676;28;20195;-61
2024/03/17 10:01:17;;;;;;;6.10;4.80;;;10.40;99.90;;;;;;5046801;28;20432;-62
2024/03/17 10:03:51;;;;;;;10.43;4.67;;;10.50;99.90;;;;;;5047288;28;20437;-62
2024/03/17 10:06:29;;;;;;;8.50;5.13;;;10.60;99.90;;;;;;5046914;28;20433;-61
2024/03/17 10:08:57;;;;;;;10.73;5.60;;;10.60;99.90;;;;;;5044208;28;20562;-58
2024/03/17 10:11:25;;;;;;;10.67;4.30;;;10.60;99.90;;;;;;5048332;28;20473;-59
2024/03/17 10:14:04;;;;;;;7.90;4.30;;;10.70;99.90;;;;;;5050310;28;20405;-59
2024/03/17 10:16:32;;;;;;;8.13;4.10;;;10.80;99.90;;;;;;5047789;28;20470;-56
2024/03/17 10:19:10;;;;;;;8.80;4.10;;;10.90;99.90;;;;;;5048919;28;20564;-61
2024/03/17 10:21:37;;;;;;;9.53;4.23;;;10.90;99.90;;;;;;5048388;28;20774;-62
2024/03/17 10:24:07;;;;;;;16.77;4.70;;;11.00;99.90;;;;;;5048882;28;20524;-62
2024/03/17 10:26:37;;;;;;;11.90;3.53;;;11.20;99.90;;;;;;5041736;28;20819;-61
2024/03/17 10:29:04;;;;;;;8.53;3.50;;;11.30;99.90;;;;;;5045924;28;20477;-59
2024/03/17 10:31:30;;;;;;;5.43;3.50;;;11.30;99.90;;;;;;5043788;28;20464;-61
2024/03/17 10:34:02;;;;;;;10.10;3.30;;;11.40;99.90;;;;;;5050513;28;20405;-61
2024/03/17 10:36:27;;;;;;;7.80;3.27;;;11.40;99.90;;;;;;5046798;28;20417;-61
2024/03/17 10:38:54;;;;;;;8.00;3.20;;;11.50;99.90;;;;;;5044054;28;20445;-60
2024/03/17 10:41:22;;;;;;;12.27;3.90;;;11.50;99.90;;;;;;5043700;28;20257;-63
2024/03/17 10:43:47;;;;;;;6.50;3.50;;;11.50;99.90;;;;;;5044174;28;20452;-61
2024/03/17 10:46:15;;;;;;;9.53;3.50;;;11.50;99.90;;;;;;5044908;28;21512;-61
2024/03/17 10:48:42;;;;;;;6.17;2.90;;;11.50;99.90;;;;;;5046531;28;20249;-61
2024/03/17 10:51:16;;;;;;;7.17;3.23;;;11.50;99.90;;;;;;5043929;28;20465;-61
2024/03/17 10:53:46;;;;;;;6.10;3.40;;;11.50;99.90;;;;;;5029133;28;20487;-61
2024/03/17 10:56:15;;;;;;;6.73;2.53;;;11.40;99.90;;;;;;5040631;28;20433;-60
2024/03/17 10:58:50;;;;;;;7.37;4.40;;;11.40;99.90;;;;;;5043397;28;20536;-62
2024/03/17 11:01:18;;;;;;;7.37;3.40;;;11.40;99.90;;;;;;5043741;28;20778;-63
2024/03/17 11:03:46;;;;;;;8.57;3.40;;;11.40;99.90;;;;;;5044872;28;20438;-61
2024/03/17 11:06:13;;;;;;;5.13;3.00;;;11.40;99.90;;;;;;5041399;28;20948;-60
2024/03/17 11:08:42;;;;;;;6.70;2.67;;;11.30;99.90;;;;;;5042586;28;20456;-61
2024/03/17 11:11:08;;;;;;;11.27;2.70;;;11.30;99.90;;;;;;5040479;28;20461;-60
2024/03/17 11:13:36;;;;;;;10.80;2.27;;;11.30;99.90;;;;;;5045513;28;20417;-63
2024/03/17 11:16:04;;;;;;;4.97;2.30;;;11.30;99.90;;;;;;5045080;28;20434;-68
2024/03/17 11:18:34;;;;;;;8.27;2.87;;;11.30;99.90;;;;;;5040622;28;20452;-61
2024/03/17 11:21:20;;;;;;;9.73;3.07;;;11.40;99.90;;;;;;5044628;28;20528;-61
2024/03/17 11:23:57;;;;;;;11.00;3.40;;;11.40;99.90;;;;;;5045235;28;20421;-61
2024/03/17 11:26:28;;;;;;;7.27;2.80;;;11.50;99.90;;;;;;5042838;28;20437;-60
2024/03/17 11:28:55;;;;;;;8.30;2.50;;;11.50;99.90;;;;;;5041026;28;20993;-61
2024/03/17 11:31:43;;;;;;;9.10;2.60;;;11.60;99.90;;;;;;5042340;28;20492;-60
2024/03/17 11:34:28;;;;;;;5.10;2.60;;;11.60;99.90;;;;;;5043952;28;20457;-59
2024/03/17 11:36:54;;;;;;;3.47;2.40;;;11.70;99.90;;;;;;5044244;28;20426;-61
2024/03/17 11:39:25;;;;;;;7.73;2.10;;;11.80;99.90;;;;;;5044580;28;20537;-60
2024/03/17 11:41:51;;;;;;;6.20;2.47;;;11.90;99.90;;;;;;5046372;28;20452;-58
2024/03/17 11:44:24;;;;;;;;;;;;;;;;;;;;;
2024/03/17 11:46:51;;;;;;;5.97;2.43;;;12.00;99.90;;;;;;5042910;28;20425;-61
2024/03/17 11:49:21;;;;;;;4.53;2.50;;;12.00;99.90;;;;;;5042504;28;20449;-60
2024/03/17 11:51:47;;;;;;;4.23;2.37;;;12.00;99.90;;;;;;5043791;28;20457;-60
2024/03/17 11:54:18;;;;;;;6.40;2.20;;;12.00;99.90;;;;;;5045323;28;20987;-58
2024/03/17 11:56:55;;;;;;;8.37;3.27;;;12.10;99.90;;;;;;5038869;28;20524;-62
2024/03/17 11:59:22;;;;;;;9.77;3.13;;;12.10;99.90;;;;;;5041126;28;20676;-60
2024/03/17 12:01:49;;;;;;;5.17;2.20;;;12.10;99.90;;;;;;5042683;28;20433;-61
2024/03/17 12:04:16;;;;;;;4.70;2.80;;;12.20;99.90;;;;;;5045589;28;20442;-62
2024/03/17 12:06:52;;;;;;;3.80;2.40;;;12.20;99.90;;;;;;5045019;28;20473;-64
2024/03/17 12:09:26;;;;;;;6.13;2.40;;;12.30;99.90;;;;;;5040780;28;20449;-65
2024/03/17 12:12:04;;;;;;;6.93;2.27;;;12.30;99.90;;;;;;5044101;28;20457;-62
2024/03/17 12:14:30;;;;;;;7.27;2.27;;;12.30;99.90;;;;;;5041436;28;20795;-61
2024/03/17 12:17:11;;;;;;;5.07;2.57;;;12.20;99.90;;;;;;5044682;28;20441;-61
2024/03/17 12:19:40;;;;;;;4.67;2.40;;;12.20;99.90;;;;;;5045526;28;20510;-61
2024/03/17 12:22:06;;;;;;;4.87;2.10;;;12.10;99.90;;;;;;5046649;28;20468;-61
2024/03/17 12:24:37;;;;;;;5.93;2.30;;;12.00;99.90;;;;;;5049242;28;20543;-61
2024/03/17 12:27:06;;;;;;;3.03;2.00;;;11.90;99.90;;;;;;5045750;28;20440;-64
2024/03/17 12:29:36;;;;;;;7.53;2.67;;;11.90;99.90;;;;;;5046321;28;20499;-61
2024/03/17 12:32:18;;;;;;;6.13;2.67;;;11.90;99.90;;;;;;5045076;28;20982;-61
2024/03/17 12:34:45;;;;;;;4.27;2.60;;;12.00;99.90;;;;;;5045460;28;21137;-61
2024/03/17 12:37:33;;;;;;;3.83;2.53;;;12.00;99.90;;;;;;5045711;28;20797;-61
2024/03/17 12:39:59;;;;;;;4.10;2.17;;;12.10;99.90;;;;;;5044495;28;20552;-60
2024/03/17 12:42:26;;;;;;;12.00;2.47;;;12.10;99.90;;;;;;5046957;28;21152;-61
2024/03/17 12:44:56;;;;;;;4.50;2.23;;;12.20;99.90;;;;;;5048946;28;20423;-61
2024/03/17 12:47:23;;;;;;;6.87;2.60;;;12.30;99.90;;;;;;5048350;28;20424;-60
2024/03/17 12:49:49;;;;;;;10.00;2.37;;;12.50;99.90;;;;;;5041098;28;21203;-61
2024/03/17 12:52:26;;;;;;;7.07;2.40;;;12.70;99.90;;;;;;5048192;28;20516;-58
2024/03/17 13:00:33;;;;;;;9.90;3.13;;;12.70;99.60;;;;;;5046578;28;20480;-62